Time;durP1;ratioP1;P1;durP2;ratioP2;P2;SDS_P1;SDS_P2;PMS_P1;PMS_P2;Temp;Humidity;BMP_temperature;BMP_pressure;BME280_temperature;BME280_humidity;BME280_pressure;Samples;Min_cycle;Max_cycle;Signal;HPM_P1;HPM_P2
2022/01/04 00:00:12;;;;;;;36.90;13.68;;;;;;;-6.72;70.52;97369.28;5070435;28;20055;-57
2022/01/04 00:02:41;;;;;;;30.08;13.35;;;;;;;-6.65;70.13;97383.03;5069476;28;20048;-53
2022/01/04 00:05:08;;;;;;;35.10;14.07;;;;;;;-6.53;69.89;97373.91;5071564;28;20067;-54
2022/01/04 00:07:34;;;;;;;38.65;15.10;;;;;;;-6.54;69.66;97371.50;5071411;28;20135;-54
2022/01/04 00:10:00;;;;;;;33.13;14.15;;;;;;;-6.68;69.70;97349.91;5071245;28;20123;-54
2022/01/04 00:15:11;;;;;;;36.85;14.93;;;;;;;-6.36;68.98;97381.44;5071483;28;20047;-56
2022/01/04 00:17:37;;;;;;;31.25;14.00;;;;;;;-6.46;69.38;97377.38;5071420;28;20052;-52
2022/01/04 00:20:04;;;;;;;29.55;12.75;;;;;;;-6.45;69.54;97378.16;5071431;28;20059;-54
2022/01/04 00:22:30;;;;;;;37.25;14.07;;;;;;;-6.43;69.65;97389.09;5053393;28;20135;-56
2022/01/04 00:24:56;;;;;;;36.78;12.95;;;;;;;-6.47;69.22;97388.66;5071215;28;20040;-53
2022/01/04 00:27:22;;;;;;;41.95;14.48;;;;;;;-6.43;69.67;97395.06;5069968;28;20159;-55
2022/01/04 00:29:48;;;;;;;35.80;12.90;;;;;;;-6.45;69.39;97394.44;5036608;28;20083;-53
2022/01/04 00:32:14;;;;;;;32.75;13.32;;;;;;;-6.42;69.55;97401.81;5070931;28;20049;-54
2022/01/04 00:34:41;;;;;;;37.25;14.35;;;;;;;-6.38;69.42;97397.13;5052822;28;20069;-53
2022/01/04 00:37:07;;;;;;;35.92;14.73;;;;;;;-6.38;69.12;97404.03;5053116;28;20049;-52
2022/01/04 00:39:33;;;;;;;37.05;15.18;;;;;;;-6.29;69.35;97402.97;5071048;28;20564;-53
2022/01/04 00:41:59;;;;;;;30.73;12.23;;;;;;;-6.30;68.58;97393.63;5069630;28;20052;-53
2022/01/04 00:44:26;;;;;;;29.83;12.70;;;;;;;-6.24;68.68;97404.00;5070992;28;20341;-55
2022/01/04 00:46:52;;;;;;;33.30;14.23;;;;;;;-6.24;68.32;97403.22;5070945;28;20048;-51
2022/01/04 00:49:20;;;;;;;33.28;13.73;;;;;;;-6.26;69.21;97395.69;5053227;28;20455;-56
2022/01/04 00:51:48;;;;;;;33.00;12.98;;;;;;;-6.27;68.42;97394.06;5071013;28;20045;-56
2022/01/04 00:54:16;;;;;;;34.63;13.85;;;;;;;-6.27;68.42;97396.63;5069621;28;20043;-57
2022/01/04 00:56:43;;;;;;;33.25;13.75;;;;;;;-6.26;69.09;97400.84;5069892;28;20072;-55
2022/01/04 00:59:09;;;;;;;37.80;14.98;;;;;;;-6.26;68.72;97410.34;5071096;28;20093;-54
2022/01/04 01:01:36;;;;;;;31.52;12.85;;;;;;;-6.34;69.32;97402.72;5036274;28;20131;-55
2022/01/04 01:04:05;;;;;;;29.25;13.27;;;;;;;-6.32;68.86;97409.28;5071042;28;20032;-56
2022/01/04 01:06:31;;;;;;;40.90;13.63;;;;;;;-6.34;69.12;97408.66;5036441;28;20052;-57
2022/01/04 01:08:56;;;;;;;36.05;14.00;;;;;;;-6.37;69.36;97411.59;5070765;28;20043;-57
2022/01/04 01:11:23;;;;;;;34.78;14.02;;;;;;;-6.29;69.17;97410.72;5069408;28;20044;-55
2022/01/04 01:13:48;;;;;;;37.72;15.55;;;;;;;-6.22;68.91;97412.38;5071778;28;20536;-55
2022/01/04 01:16:14;;;;;;;37.05;14.35;;;;;;;-6.11;68.57;97415.50;5073278;28;20048;-55
2022/01/04 01:18:40;;;;;;;33.75;14.40;;;;;;;-6.13;68.32;97407.13;5074768;28;20055;-55
2022/01/04 01:21:06;;;;;;;35.22;14.20;;;;;;;-6.12;68.00;97408.72;5072673;28;20082;-54
2022/01/04 01:23:33;;;;;;;35.53;14.70;;;;;;;-6.21;69.04;97411.38;5073201;28;20040;-55
2022/01/04 01:25:59;;;;;;;32.08;14.35;;;;;;;-6.30;68.79;97412.47;5056589;28;20048;-55
2022/01/04 01:28:25;;;;;;;38.78;14.30;;;;;;;-6.32;69.42;97419.59;5074591;28;20040;-54
2022/01/04 01:30:51;;;;;;;31.17;14.20;;;;;;;-6.28;68.83;97414.88;5074366;28;20098;-54
2022/01/04 01:33:18;;;;;;;33.55;13.32;;;;;;;-6.25;68.93;97412.75;5072796;28;20037;-54
2022/01/04 01:35:44;;;;;;;37.15;14.95;;;;;;;-6.30;68.84;97402.16;5074123;28;20048;-52
2022/01/04 01:38:14;;;;;;;33.13;13.68;;;;;;;-6.30;68.89;97401.34;5072886;28;20090;-54
2022/01/04 01:40:40;;;;;;;34.38;13.52;;;;;;;-6.31;68.85;97412.66;5073934;28;20044;-52
2022/01/04 01:43:07;;;;;;;35.03;12.63;;;;;;;-6.39;69.11;97418.69;5072500;28;20093;-55
2022/01/04 01:45:34;;;;;;;27.35;12.50;;;;;;;-6.48;69.03;97417.97;5022807;28;20040;-52
2022/01/04 01:47:59;;;;;;;32.67;13.10;;;;;;;-6.55;69.69;97424.03;5055906;28;20048;-54
2022/01/04 01:50:26;;;;;;;27.90;13.13;;;;;;;-6.72;69.66;97413.09;5073770;28;20207;-51
2022/01/04 01:52:52;;;;;;;29.92;12.95;;;;;;;-6.62;69.52;97421.34;5073979;28;20498;-53
2022/01/04 01:55:20;;;;;;;33.08;12.98;;;;;;;-6.61;69.35;97414.44;5072316;28;20040;-53
2022/01/04 01:57:47;;;;;;;36.78;13.73;;;;;;;-6.66;69.52;97420.91;5073937;28;20076;-53
2022/01/04 02:00:15;;;;;;;31.92;12.30;;;;;;;-6.70;69.59;97421.44;5073713;28;20097;-55
2022/01/04 02:02:41;;;;;;;29.42;12.93;;;;;;;-6.72;70.24;97411.31;5073653;28;20498;-54
2022/01/04 02:05:08;;;;;;;30.48;12.13;;;;;;;-6.65;69.25;97417.38;5073367;28;20101;-55
2022/01/04 02:07:35;;;;;;;32.90;12.90;;;;;;;-6.68;70.01;97416.91;5073401;28;20040;-53
2022/01/04 02:10:04;;;;;;;28.85;12.15;;;;;;;-6.76;69.94;97414.41;5073476;28;20056;-54
2022/01/04 02:12:32;;;;;;;22.73;11.05;;;;;;;-6.76;69.91;97420.38;5072180;28;20065;-52
2022/01/04 02:14:58;;;;;;;21.25;10.15;;;;;;;-6.82;69.97;97418.50;5073130;28;20048;-54
2022/01/04 02:17:24;;;;;;;28.13;11.60;;;;;;;-6.75;70.27;97414.22;5073266;28;20044;-52
2022/01/04 02:19:55;;;;;;;29.38;12.52;;;;;;;-6.76;69.52;97410.06;5073392;28;20041;-54
2022/01/04 02:22:27;;;;;;;25.15;11.68;;;;;;;-6.73;70.00;97417.44;5055467;28;20065;-54
2022/01/04 02:24:54;;;;;;;30.15;12.20;;;;;;;-6.70;70.04;97422.25;5071016;28;20115;-54
2022/01/04 02:27:20;;;;;;;29.67;12.18;;;;;;;-6.63;69.73;97435.22;5055325;28;20066;-53
2022/01/04 02:29:47;;;;;;;26.92;12.25;;;;;;;-6.63;69.71;97422.34;5071694;28;20041;-49
2022/01/04 02:32:14;;;;;;;25.23;10.98;;;;;;;-6.64;69.59;97431.84;5073012;28;20048;-52
2022/01/04 02:34:40;;;;;;;26.45;11.43;;;;;;;-6.58;69.67;97426.97;5038328;28;20399;-55
2022/01/04 02:37:08;;;;;;;23.88;12.05;;;;;;;-6.60;69.65;97432.28;5073074;28;20068;-51
2022/01/04 02:39:36;;;;;;;26.45;11.40;;;;;;;-6.52;69.01;97434.00;5073045;28;20052;-53
2022/01/04 02:42:05;;;;;;;29.63;11.60;;;;;;;-6.60;69.06;97440.03;5073111;28;20090;-57
2022/01/04 02:44:32;;;;;;;27.70;12.98;;;;;;;-6.58;69.29;97437.28;5072929;28;20093;-55
2022/01/04 02:46:58;;;;;;;24.45;10.38;;;;;;;-6.59;69.24;97440.81;5054667;28;20079;-53
2022/01/04 02:49:24;;;;;;;26.48;11.38;;;;;;;-6.54;69.00;97443.66;5072544;28;20555;-57
2022/01/04 02:51:50;;;;;;;24.55;10.85;;;;;;;-6.41;68.79;97441.28;5072545;28;20040;-53
2022/01/04 02:54:15;;;;;;;26.65;11.88;;;;;;;-6.36;68.75;97446.69;5072459;28;20501;-54
2022/01/04 02:56:41;;;;;;;31.30;11.88;;;;;;;-6.42;68.82;97448.19;5071362;28;20131;-52
2022/01/04 02:59:07;;;;;;;27.48;12.05;;;;;;;-6.37;69.05;97449.47;5072678;28;20072;-56
2022/01/04 03:01:33;;;;;;;24.88;11.38;;;;;;;-6.37;68.73;97445.09;5072396;28;20048;-55
2022/01/04 03:03:59;;;;;;;28.00;12.25;;;;;;;-6.38;68.59;97447.84;5072256;28;20541;-56
2022/01/04 03:06:24;;;;;;;23.80;10.95;;;;;;;-6.33;68.53;97455.84;5070976;28;20044;-57
2022/01/04 03:08:50;;;;;;;28.08;11.07;;;;;;;-6.39;69.09;97459.94;5072465;28;20131;-55
2022/01/04 03:11:16;;;;;;;23.90;11.50;;;;;;;-6.40;68.42;97455.78;5054172;28;20040;-56
2022/01/04 03:13:42;;;;;;;26.20;11.13;;;;;;;-6.31;69.04;97461.66;5071001;28;20036;-55
2022/01/04 03:16:08;;;;;;;24.38;10.77;;;;;;;-6.21;68.34;97464.75;5054239;28;20093;-54
2022/01/04 03:18:35;;;;;;;22.75;10.63;;;;;;;-6.19;67.70;97462.81;5072470;28;20045;-54
2022/01/04 03:21:01;;;;;;;28.25;11.82;;;;;;;-6.19;68.45;97465.38;5072030;28;20041;-54
2022/01/04 03:23:27;;;;;;;29.05;12.60;;;;;;;-6.15;68.20;97468.41;5070965;28;20055;-54
2022/01/04 03:25:52;;;;;;;26.45;12.25;;;;;;;-6.24;68.26;97471.06;5071848;28;20045;-54
2022/01/04 03:28:20;;;;;;;29.77;11.63;;;;;;;-6.31;68.74;97466.81;5072185;28;20109;-54
2022/01/04 03:30:46;;;;;;;25.67;11.60;;;;;;;-6.35;68.65;97470.69;5072024;28;20048;-54
2022/01/04 03:33:12;;;;;;;27.75;11.55;;;;;;;-6.38;69.17;97473.63;5072098;28;20048;-54
2022/01/04 03:35:38;;;;;;;29.92;13.00;;;;;;;-6.43;69.00;97474.19;5037028;28;20052;-54
2022/01/04 03:38:04;;;;;;;36.08;12.05;;;;;;;-6.34;68.70;97480.84;5072062;28;20044;-52
2022/01/04 03:40:30;;;;;;;29.02;12.57;;;;;;;-6.30;68.79;97476.13;5071884;28;20040;-54
2022/01/04 03:42:55;;;;;;;30.10;12.07;;;;;;;-6.53;68.96;97473.63;5070343;28;20075;-56
2022/01/04 03:45:21;;;;;;;32.97;13.98;;;;;;;-6.35;69.26;97481.84;5071574;28;20040;-53
2022/01/04 03:47:47;;;;;;;28.30;12.30;;;;;;;-6.41;68.68;97483.34;5071926;28;20086;-52
2022/01/04 03:50:13;;;;;;;28.23;13.55;;;;;;;-6.35;68.79;97486.16;5071672;28;20490;-54
2022/01/04 03:52:39;;;;;;;35.40;14.60;;;;;;;-6.33;68.71;97479.84;5070480;28;20117;-53
2022/01/04 03:55:07;;;;;;;26.67;12.43;;;;;;;-6.40;69.07;97478.97;5070504;28;20036;-54
2022/01/04 03:57:33;;;;;;;29.88;13.30;;;;;;;-6.43;68.73;97481.91;5071543;28;20059;-56
2022/01/04 03:59:59;;;;;;;28.27;12.65;;;;;;;-6.38;69.23;97477.03;5070155;28;20036;-53
2022/01/04 04:02:25;;;;;;;27.75;12.40;;;;;;;-6.34;69.21;97496.31;5070056;28;20058;-56
2022/01/04 04:04:51;;;;;;;29.92;12.13;;;;;;;-6.24;68.97;97491.69;5053728;28;20532;-52
2022/01/04 04:07:17;;;;;;;29.92;13.35;;;;;;;-6.20;68.74;97492.94;5070205;28;20406;-55
2022/01/04 04:09:42;;;;;;;26.08;12.05;;;;;;;-6.17;68.34;97487.44;5071407;28;20336;-54
2022/01/04 04:12:09;;;;;;;39.75;16.00;;;;;;;-6.29;68.32;97493.22;5069844;28;20048;-53
2022/01/04 04:14:34;;;;;;;31.55;13.65;;;;;;;-6.31;68.82;97485.66;5071194;28;20082;-55
2022/01/04 04:17:00;;;;;;;28.98;12.80;;;;;;;-6.29;68.98;97488.06;5071088;28;20052;-55
2022/01/04 04:19:26;;;;;;;28.50;12.02;;;;;;;-6.37;68.87;97496.66;5071244;28;20041;-56
2022/01/04 04:21:52;;;;;;;26.90;12.10;;;;;;;-6.31;68.83;97484.84;5071126;28;20051;-53
2022/01/04 04:24:17;;;;;;;28.75;12.00;;;;;;;-6.33;68.74;97484.22;5071153;28;20123;-53
2022/01/04 04:26:43;;;;;;;32.13;13.02;;;;;;;-6.28;68.35;97490.44;5071315;28;20044;-52
2022/01/04 04:29:09;;;;;;;31.42;12.90;;;;;;;-6.26;68.36;97491.09;5071387;28;20032;-55
2022/01/04 04:31:35;;;;;;;29.42;12.68;;;;;;;-6.41;68.75;97485.13;5071280;28;20474;-54
2022/01/04 04:34:01;;;;;;;29.73;13.32;;;;;;;-6.47;69.34;97493.53;5071024;28;20087;-54
2022/01/04 04:36:27;;;;;;;30.75;12.90;;;;;;;-6.45;68.75;97492.38;5070940;28;20490;-54
2022/01/04 04:38:53;;;;;;;24.05;11.73;;;;;;;-6.45;69.22;97494.16;5071349;28;20441;-55
2022/01/04 04:41:19;;;;;;;26.65;12.07;;;;;;;-6.59;69.87;97492.34;5069666;28;20036;-56
2022/01/04 04:43:45;;;;;;;29.60;12.43;;;;;;;-6.57;69.82;97488.63;5071491;28;20052;-53
2022/01/04 04:46:11;;;;;;;30.13;12.43;;;;;;;-6.62;69.77;97483.19;5070870;28;20059;-52
2022/01/04 04:48:37;;;;;;;28.73;12.30;;;;;;;-6.63;69.76;97484.19;5055234;28;20036;-51
2022/01/04 04:51:03;;;;;;;29.05;11.90;;;;;;;-6.55;69.66;97481.53;5073449;28;20472;-54
2022/01/04 04:53:29;;;;;;;30.88;13.98;;;;;;;-6.63;69.39;97487.56;5075306;28;20124;-55
2022/01/04 04:55:55;;;;;;;30.15;13.02;;;;;;;-6.56;69.42;97487.66;5073485;28;20040;-54
2022/01/04 04:58:20;;;;;;;35.65;13.68;;;;;;;-6.57;69.29;97491.22;5075066;28;20057;-54
2022/01/04 05:00:46;;;;;;;30.45;13.10;;;;;;;-6.55;69.58;97481.53;5074810;28;20047;-53
2022/01/04 05:03:12;;;;;;;28.92;13.07;;;;;;;-6.49;69.39;97491.16;5073207;28;20056;-54
2022/01/04 05:05:38;;;;;;;28.10;12.55;;;;;;;-6.44;69.70;97491.44;5074552;28;20190;-52
2022/01/04 05:08:04;;;;;;;22.88;11.95;;;;;;;-6.48;69.34;97500.47;5074886;28;20056;-53
2022/01/04 05:10:31;;;;;;;28.50;12.18;;;;;;;-6.48;69.26;97505.63;5073303;28;20051;-53
2022/01/04 05:12:57;;;;;;;28.92;12.93;;;;;;;-6.48;69.08;97507.41;5074624;28;20048;-56
2022/01/04 05:15:23;;;;;;;33.47;13.80;;;;;;;-6.45;69.32;97505.28;5074341;28;20055;-52
2022/01/04 05:17:48;;;;;;;35.50;13.48;;;;;;;-6.50;69.82;97514.50;5074615;28;20048;-54
2022/01/04 05:20:15;;;;;;;33.92;13.68;;;;;;;-6.51;69.88;97511.13;5074411;28;20123;-53
2022/01/04 05:22:41;;;;;;;32.03;13.77;;;;;;;-6.48;69.88;97503.03;5074534;28;20124;-52
2022/01/04 05:25:08;;;;;;;30.63;13.00;;;;;;;-6.48;69.89;97515.94;5074348;28;20139;-55
2022/01/04 05:27:34;;;;;;;31.58;12.93;;;;;;;-6.45;69.81;97510.44;5074289;28;20052;-55
2022/01/04 05:29:59;;;;;;;26.33;11.00;;;;;;;-6.44;69.50;97518.94;5074126;28;20044;-53
2022/01/04 05:32:25;;;;;;;29.67;12.98;;;;;;;-6.51;69.25;97505.19;5074256;28;20102;-54
2022/01/04 05:34:51;;;;;;;35.83;15.27;;;;;;;-6.46;69.26;97508.03;5072767;28;20071;-55
2022/01/04 05:37:17;;;;;;;30.77;12.82;;;;;;;-6.59;69.93;97508.63;5074250;28;20041;-55
2022/01/04 05:39:42;;;;;;;30.27;12.60;;;;;;;-6.63;69.75;97521.06;5074272;28;20043;-55
2022/01/04 05:42:08;;;;;;;31.50;12.50;;;;;;;-6.61;70.20;97510.59;5073763;28;20048;-53
2022/01/04 05:44:38;;;;;;;29.35;12.63;;;;;;;-6.64;70.75;97523.81;5056228;28;20036;-54
2022/01/04 05:47:07;;;;;;;39.55;13.30;;;;;;;-6.59;69.72;97523.28;5072469;28;20061;-52
2022/01/04 05:49:32;;;;;;;33.15;12.48;;;;;;;-6.57;69.67;97522.13;5072430;28;20062;-55
2022/01/04 05:51:58;;;;;;;30.90;14.35;;;;;;;-6.61;69.93;97518.31;5073709;28;20533;-52
2022/01/04 05:54:24;;;;;;;36.28;14.50;;;;;;;-6.60;69.60;97516.53;5072741;28;20044;-56
2022/01/04 05:56:50;;;;;;;35.83;15.20;;;;;;;-6.50;70.08;97524.81;5055743;28;20398;-56
2022/01/04 05:59:16;;;;;;;35.25;14.80;;;;;;;-6.45;69.41;97525.09;5071243;28;20174;-53
2022/01/04 06:01:42;;;;;;;37.60;16.05;;;;;;;-6.50;69.67;97523.06;5073411;28;20561;-56
2022/01/04 06:04:10;;;;;;;51.60;22.23;;;;;;;-6.44;69.79;97527.50;5072172;28;20041;-56
2022/01/04 06:06:39;;;;;;;52.97;19.58;;;;;;;-6.36;69.79;97544.66;5073193;28;20051;-53
2022/01/04 06:09:05;;;;;;;44.55;18.35;;;;;;;-6.30;69.54;97548.31;5072071;28;20048;-55
2022/01/04 06:11:44;;;;;;;31.88;13.27;;;;;;;-6.31;69.34;97546.72;5071884;28;20051;-54
2022/01/04 06:16:54;;;;;;;33.67;13.25;;;;;;;-6.30;68.89;97554.28;5073259;28;20051;-52
2022/01/04 06:19:20;;;;;;;30.92;13.73;;;;;;;-6.27;69.29;97558.28;5073486;28;20468;-52
2022/01/04 06:21:45;;;;;;;29.15;13.98;;;;;;;-6.34;69.12;97567.72;5071783;28;20044;-51
2022/01/04 06:24:11;;;;;;;31.23;12.98;;;;;;;-6.24;68.98;97574.22;5071924;28;20165;-54
2022/01/04 06:26:37;;;;;;;29.17;13.15;;;;;;;-6.09;68.47;97574.22;5073030;28;20077;-50
2022/01/04 06:29:03;;;;;;;37.05;13.93;;;;;;;-5.99;67.55;97577.38;5071980;28;20071;-53
2022/01/04 06:31:29;;;;;;;31.95;13.35;;;;;;;-6.03;68.87;97563.25;5071763;28;20079;-54
2022/01/04 06:33:55;;;;;;;33.67;13.85;;;;;;;-6.08;68.53;97562.16;5072719;28;20055;-53
2022/01/04 06:36:21;;;;;;;31.60;14.20;;;;;;;-6.10;68.80;97564.91;5038647;28;20044;-54
2022/01/04 06:38:47;;;;;;;34.13;14.93;;;;;;;-6.16;68.44;97573.34;5071818;28;20040;-54
2022/01/04 06:41:14;;;;;;;34.67;14.15;;;;;;;-6.15;68.95;97574.13;5072694;28;20036;-52
2022/01/04 06:43:39;;;;;;;36.53;13.98;;;;;;;-6.02;69.19;97582.09;5073340;28;20045;-53
2022/01/04 06:46:05;;;;;;;39.38;14.60;;;;;;;-5.94;68.08;97584.59;5072514;28;20036;-50
2022/01/04 06:48:31;;;;;;;36.05;15.07;;;;;;;-5.88;68.49;97595.94;5073084;28;20055;-51
2022/01/04 06:50:57;;;;;;;36.47;15.98;;;;;;;-5.86;68.43;97597.38;5072811;28;20582;-55
2022/01/04 06:53:23;;;;;;;35.58;15.38;;;;;;;-5.84;67.75;97586.88;5073663;28;20551;-53
2022/01/04 06:55:50;;;;;;;35.50;14.25;;;;;;;-5.82;68.20;97590.88;5073368;28;20050;-56
2022/01/04 06:58:17;;;;;;;32.10;14.45;;;;;;;-5.78;67.77;97591.34;5072995;28;20049;-57
2022/01/04 07:00:43;;;;;;;40.65;15.18;;;;;;;-5.75;68.16;97601.31;5071339;28;20141;-54
2022/01/04 07:03:08;;;;;;;42.15;17.95;;;;;;;-5.71;67.79;97598.19;5072271;28;20087;-57
2022/01/04 07:05:35;;;;;;;38.55;15.85;;;;;;;-5.69;67.85;97600.59;5072426;28;20055;-57
2022/01/04 07:08:02;;;;;;;49.78;18.75;;;;;;;-5.62;67.25;97601.47;5071162;28;20071;-55
2022/01/04 07:10:28;;;;;;;37.70;16.00;;;;;;;-5.56;67.43;97599.94;5071844;28;20098;-54
2022/01/04 07:12:54;;;;;;;48.28;16.83;;;;;;;-5.56;67.38;97607.69;5072132;28;20048;-52
2022/01/04 07:15:20;;;;;;;46.42;18.02;;;;;;;-5.49;67.15;97608.59;5072236;28;20047;-56
2022/01/04 07:17:45;;;;;;;36.05;16.55;;;;;;;-5.43;66.94;97605.31;5072280;28;20049;-54
2022/01/04 07:20:12;;;;;;;42.60;16.42;;;;;;;-5.43;66.69;97613.06;5072135;28;20051;-54
2022/01/04 07:22:38;;;;;;;42.00;16.25;;;;;;;-5.40;66.77;97614.47;5070790;28;20056;-55
2022/01/04 07:25:05;;;;;;;35.42;15.82;;;;;;;-5.38;66.99;97613.31;5071778;28;20044;-53
2022/01/04 07:27:31;;;;;;;38.63;17.13;;;;;;;-5.32;66.73;97609.22;5072048;28;20044;-57
2022/01/04 07:29:57;;;;;;;34.90;15.07;;;;;;;-5.26;66.12;97619.63;5070793;28;20130;-55
2022/01/04 07:32:22;;;;;;;38.08;15.25;;;;;;;-5.20;66.24;97620.69;5071880;28;20586;-52
2022/01/04 07:34:48;;;;;;;40.13;14.90;;;;;;;-5.23;66.19;97613.31;5070369;28;20140;-53
2022/01/04 07:37:15;;;;;;;38.50;14.98;;;;;;;-5.28;66.24;97623.38;5070468;28;20521;-55
2022/01/04 07:39:40;;;;;;;36.42;16.25;;;;;;;-5.27;66.11;97624.97;5054117;28;20040;-52
2022/01/04 07:42:06;;;;;;;44.63;17.73;;;;;;;-5.35;65.88;97627.66;5071553;28;20628;-56
2022/01/04 07:44:34;;;;;;;43.92;16.55;;;;;;;-5.31;66.50;97634.84;5070277;28;20040;-52
2022/01/04 07:47:00;;;;;;;44.30;17.17;;;;;;;-5.17;66.29;97650.53;5071840;28;20045;-57
2022/01/04 07:49:25;;;;;;;36.00;16.85;;;;;;;-5.03;65.79;97647.09;5070298;28;20474;-60
2022/01/04 07:51:52;;;;;;;33.50;14.70;;;;;;;-4.95;65.19;97652.19;5070077;28;20045;-55
2022/01/04 07:54:18;;;;;;;33.47;15.02;;;;;;;-4.85;65.24;97644.16;5070213;28;20067;-58
2022/01/04 07:56:44;;;;;;;34.80;14.77;;;;;;;-4.81;64.98;97640.22;5071290;28;20071;-57
2022/01/04 07:59:10;;;;;;;36.88;15.85;;;;;;;-4.78;64.82;97641.66;5071416;28;20135;-56
2022/01/04 08:01:36;;;;;;;38.13;16.30;;;;;;;-4.76;64.98;97640.47;5070054;28;20044;-53
2022/01/04 08:04:04;;;;;;;35.53;15.63;;;;;;;-4.84;64.93;97632.84;5071729;28;20055;-55
2022/01/04 08:06:31;;;;;;;35.88;16.10;;;;;;;-4.75;64.94;97628.34;5070073;28;20071;-53
2022/01/04 08:08:57;;;;;;;39.90;15.77;;;;;;;-4.64;64.81;97626.09;5070050;28;20635;-55
2022/01/04 08:11:25;;;;;;;38.58;15.80;;;;;;;-4.60;63.80;97624.72;5036683;28;20072;-56
2022/01/04 08:13:51;;;;;;;40.25;17.23;;;;;;;-4.53;64.12;97619.63;5069991;28;20059;-53
2022/01/04 08:16:17;;;;;;;44.67;17.50;;;;;;;-4.45;63.80;97623.88;5071405;28;20036;-53
2022/01/04 08:18:44;;;;;;;36.17;16.42;;;;;;;-4.47;63.77;97623.25;5071795;28;20059;-55
2022/01/04 08:21:10;;;;;;;40.20;16.25;;;;;;;-4.37;63.55;97629.72;5053004;28;20173;-50
2022/01/04 08:23:36;;;;;;;36.20;16.75;;;;;;;-4.22;63.79;97626.28;5068719;28;20460;-56
2022/01/04 08:26:03;;;;;;;39.92;17.10;;;;;;;-4.17;62.91;97632.50;5075373;28;20051;-57
2022/01/04 08:28:28;;;;;;;46.63;16.77;;;;;;;-4.15;63.44;97627.13;5057593;28;20049;-55
2022/01/04 08:30:54;;;;;;;38.90;18.13;;;;;;;-4.08;63.32;97627.19;5073923;28;20109;-56
2022/01/04 08:33:20;;;;;;;44.35;17.25;;;;;;;-3.98;62.46;97630.25;5074006;28;20132;-54
2022/01/04 08:35:46;;;;;;;43.88;19.58;;;;;;;-3.91;62.39;97625.94;5075433;28;20109;-57
2022/01/04 08:38:12;;;;;;;45.90;19.63;;;;;;;-3.83;62.88;97630.94;5075464;28;20131;-54
2022/01/04 08:40:38;;;;;;;45.60;19.50;;;;;;;-3.74;61.95;97629.03;5074207;28;20045;-57
2022/01/04 08:43:04;;;;;;;42.45;18.15;;;;;;;-3.99;61.38;97585.44;5075187;28;20053;-54
2022/01/04 08:45:30;;;;;;;48.58;19.38;;;;;;;-3.70;61.67;97628.47;5074359;28;20486;-59
2022/01/04 08:47:56;;;;;;;41.33;18.63;;;;;;;-3.63;61.91;97633.69;5074662;28;20045;-57
2022/01/04 08:50:22;;;;;;;49.10;20.10;;;;;;;-3.63;61.48;97631.09;5056430;28;20409;-55
2022/01/04 08:52:51;;;;;;;48.53;19.40;;;;;;;-3.62;61.52;97626.72;5056538;28;20545;-58
2022/01/04 08:55:17;;;;;;;44.55;19.33;;;;;;;-3.56;62.16;97629.34;5073416;28;20048;-59
2022/01/04 08:57:43;;;;;;;45.55;19.98;;;;;;;-3.54;61.68;97636.91;5073414;28;20040;-59
2022/01/04 09:00:11;;;;;;;50.17;20.08;;;;;;;-3.62;61.57;97630.09;5073464;28;20033;-59
2022/01/04 09:02:37;;;;;;;46.75;19.52;;;;;;;-3.71;62.14;97633.81;5056769;28;20048;-56
2022/01/04 09:05:03;;;;;;;38.10;18.42;;;;;;;-3.74;61.81;97629.81;5056224;28;20040;-58
2022/01/04 09:07:30;;;;;;;51.78;20.10;;;;;;;-3.86;62.30;97638.31;5073890;28;20049;-56
2022/01/04 09:09:55;;;;;;;52.63;21.42;;;;;;;-3.73;62.41;97634.03;5070986;28;20044;-57
2022/01/04 09:12:25;;;;;;;46.33;18.67;;;;;;;-3.70;61.59;97635.44;5072818;28;20052;-59
2022/01/04 09:20:06;;;;;;;45.83;19.60;;;;;;;-3.60;62.58;97632.50;5072745;28;20410;-60
2022/01/04 09:22:32;;;;;;;45.13;18.88;;;;;;;-3.50;61.86;97635.53;5071805;28;20052;-59
2022/01/04 09:24:58;;;;;;;52.88;19.83;;;;;;;-3.38;61.71;97641.81;5072331;28;20414;-57
2022/01/04 09:27:23;;;;;;;47.65;20.67;;;;;;;-3.29;61.46;97643.25;5054500;28;20639;-56
2022/01/04 09:29:50;;;;;;;49.05;19.88;;;;;;;-3.20;61.09;97643.91;5071177;28;20124;-57
2022/01/04 09:32:17;;;;;;;47.10;19.63;;;;;;;-3.24;61.16;97645.25;5070876;28;20059;-58
2022/01/04 09:34:44;;;;;;;46.22;19.92;;;;;;;-3.24;61.35;97647.84;5053971;28;20056;-59
2022/01/04 09:37:10;;;;;;;43.60;19.30;;;;;;;-3.20;60.93;97636.91;5072096;28;20063;-59
2022/01/04 09:39:36;;;;;;;44.42;18.52;;;;;;;-3.04;61.06;97635.00;5072401;28;20105;-58
2022/01/04 09:42:02;;;;;;;43.50;20.48;;;;;;;-2.92;60.73;97638.63;5073829;28;20048;-58
2022/01/04 09:44:28;;;;;;;40.30;19.70;;;;;;;-2.87;60.07;97638.84;5072340;28;20051;-58
2022/01/04 09:46:55;;;;;;;43.53;18.55;;;;;;;-2.91;59.99;97639.41;5073472;28;20432;-59
2022/01/04 09:49:21;;;;;;;40.88;18.48;;;;;;;-2.89;60.23;97640.03;5055593;28;20098;-56
2022/01/04 09:51:49;;;;;;;39.00;19.65;;;;;;;-2.82;60.59;97638.28;5071678;28;20044;-56
2022/01/04 09:54:22;;;;;;;41.00;19.25;;;;;;;-2.91;60.27;97648.03;5072990;28;20036;-59
2022/01/04 09:56:49;;;;;;;43.15;17.58;;;;;;;-3.03;60.30;97641.75;5055620;28;20048;-60
2022/01/04 09:59:16;;;;;;;39.30;18.60;;;;;;;-3.03;60.91;97650.34;5072184;28;20090;-58
2022/01/04 10:01:45;;;;;;;40.97;19.55;;;;;;;-2.94;60.98;97651.00;5055189;28;20068;-55
2022/01/04 10:04:12;;;;;;;38.35;19.70;;;;;;;-2.90;60.89;97647.00;5072061;28;20044;-53
2022/01/04 10:06:39;;;;;;;47.25;19.73;;;;;;;-2.80;60.43;97646.63;5072803;28;20123;-54
2022/01/04 10:09:12;;;;;;;41.90;20.02;;;;;;;-2.70;60.67;97644.50;5073191;28;20050;-55
2022/01/04 10:11:43;;;;;;;44.60;20.60;;;;;;;-2.69;60.51;97643.50;5071918;28;20059;-55
2022/01/04 10:14:31;;;;;;;46.95;20.23;;;;;;;-2.64;60.09;97650.69;5072715;28;20460;-58
2022/01/04 10:17:02;;;;;;;44.45;19.65;;;;;;;-2.57;59.58;97644.50;5073372;28;20094;-54
2022/01/04 10:19:33;;;;;;;41.65;20.13;;;;;;;-2.55;60.22;97642.53;5073372;28;20498;-55
2022/01/04 10:22:28;;;;;;;45.92;19.65;;;;;;;-2.50;59.62;97649.72;5073415;28;20126;-57
2022/01/04 10:25:00;;;;;;;45.67;19.58;;;;;;;-2.43;59.55;97652.34;5055279;28;20052;-57
2022/01/04 10:27:41;;;;;;;43.28;19.33;;;;;;;-2.48;59.77;97652.91;5071971;28;20044;-57
2022/01/04 10:30:20;;;;;;;37.25;19.30;;;;;;;-2.41;59.73;97658.13;5071604;28;20501;-57
2022/01/04 10:32:50;;;;;;;40.53;20.00;;;;;;;-2.46;59.86;97653.53;5071736;28;20048;-55
2022/01/04 10:35:45;;;;;;;44.92;19.63;;;;;;;-2.54;59.81;97656.31;5072771;28;20472;-57
2022/01/04 10:38:12;;;;;;;43.17;19.38;;;;;;;-2.46;59.93;97661.31;5071720;28;20053;-53
2022/01/04 10:40:40;;;;;;;47.47;19.88;;;;;;;-2.70;60.24;97662.66;5038263;28;20075;-55
2022/01/04 10:43:08;;;;;;;47.40;19.35;;;;;;;-2.85;60.37;97662.78;5055123;28;20524;-55
2022/01/04 10:45:35;;;;;;;52.35;23.77;;;;;;;-2.75;61.24;97658.03;5072281;28;20128;-54
2022/01/04 10:48:22;;;;;;;47.63;19.90;;;;;;;-2.61;60.42;97661.47;5072847;28;20454;-55
2022/01/04 10:50:50;;;;;;;43.88;19.13;;;;;;;-2.54;59.97;97664.06;5071407;28;20163;-55
2022/01/04 10:53:44;;;;;;;45.38;18.55;;;;;;;-2.63;60.05;97662.66;5072409;28;20419;-52
2022/01/04 10:56:22;;;;;;;47.38;19.88;;;;;;;-2.73;60.22;97676.00;5063140;28;20517;-52
2022/01/04 10:58:50;;;;;;;46.25;20.88;;;;;;;-2.77;60.75;97677.38;5071351;28;20137;-51
2022/01/04 11:01:18;;;;;;;55.53;20.15;;;;;;;-2.80;60.49;97675.16;5072356;28;20067;-56
2022/01/04 11:03:49;;;;;;;47.83;20.58;;;;;;;-2.95;61.18;97666.72;5072619;28;20048;-61
2022/01/04 11:06:15;;;;;;;;;;;;;;;-2.93;61.80;97667.34;5054652;28;20040;-57
2022/01/04 11:08:42;;;;;;;44.03;18.30;;;;;;;-2.91;60.34;97666.16;5070635;28;19935;-59
2022/01/04 11:11:08;;;;;;;44.03;18.67;;;;;;;-3.15;61.96;97661.44;5072362;28;20040;-55
2022/01/04 11:13:34;;;;;;;56.08;20.65;;;;;;;-3.03;62.22;97660.72;5071061;28;20044;-57
2022/01/04 11:16:01;;;;;;;47.05;20.45;;;;;;;-2.91;61.73;97660.97;5070633;28;20048;-57
2022/01/04 11:18:28;;;;;;;45.72;20.58;;;;;;;-2.79;61.68;97653.44;5071809;28;20052;-56
2022/01/04 11:20:55;;;;;;;42.88;19.40;;;;;;;-2.82;61.57;97654.63;5071150;28;20041;-58
2022/01/04 11:23:26;;;;;;;45.13;18.38;;;;;;;-2.91;60.96;97658.38;5072296;28;20083;-55
2022/01/04 11:25:52;;;;;;;42.90;17.88;;;;;;;-3.03;60.90;97650.34;5070982;28;20592;-55